Time;durP1;ratioP1;P1;durP2;ratioP2;P2;SDS_P1;SDS_P2;PMS_P1;PMS_P2;Temp;Humidity;BMP_temperature;BMP_pressure;BME280_temperature;BME280_humidity;BME280_pressure;Samples;Min_cycle;Max_cycle;Signal;HPM_P1;HPM_P2
2021/03/12 00:00:31;;;;;;;2.95;1.58;;;6.60;99.90;;;;;;4981967;28;20584;-84
2021/03/12 00:02:57;;;;;;;9.18;2.47;;;6.50;99.90;;;;;;4981295;28;20289;-85
2021/03/12 00:05:24;;;;;;;4.55;1.58;;;6.50;99.90;;;;;;4981959;28;20750;-84
2021/03/12 00:07:53;;;;;;;3.05;1.92;;;6.40;99.90;;;;;;4981586;28;20241;-85
2021/03/12 00:10:22;;;;;;;4.88;1.75;;;6.30;99.90;;;;;;4990666;28;20198;-84
2021/03/12 00:12:49;;;;;;;6.05;2.00;;;6.30;99.90;;;;;;4982592;28;20238;-84
2021/03/12 00:15:18;;;;;;;4.65;2.30;;;6.20;99.90;;;;;;4990176;28;20327;-83
2021/03/12 00:17:46;;;;;;;6.43;2.28;;;6.20;99.90;;;;;;4989638;28;20669;-85
2021/03/12 00:20:16;;;;;;;5.60;2.35;;;6.20;99.90;;;;;;4988000;28;20213;-84
2021/03/12 00:22:42;;;;;;;5.88;1.60;;;6.20;99.90;;;;;;4983488;28;20241;-84
2021/03/12 00:25:12;;;;;;;10.27;3.00;;;6.10;99.90;;;;;;4989302;28;20224;-86
2021/03/12 00:27:39;;;;;;;4.75;1.70;;;6.10;99.90;;;;;;4971862;28;20737;-84
2021/03/12 00:30:11;;;;;;;3.85;2.00;;;6.00;99.90;;;;;;4979834;28;20714;-85
2021/03/12 00:32:39;;;;;;;6.15;1.70;;;6.00;99.90;;;;;;4983453;28;20234;-83
2021/03/12 00:35:07;;;;;;;6.30;2.33;;;6.00;99.90;;;;;;4981581;28;20650;-86
2021/03/12 00:37:34;;;;;;;4.47;2.00;;;5.90;99.90;;;;;;4972064;28;20471;-85
2021/03/12 00:40:01;;;;;;;5.03;2.75;;;6.00;99.90;;;;;;4980299;28;20606;-84
2021/03/12 00:42:28;;;;;;;2.38;2.08;;;6.00;99.90;;;;;;4989959;28;20227;-84
2021/03/12 00:44:55;;;;;;;5.47;2.80;;;6.00;99.90;;;;;;4984160;28;20225;-84
2021/03/12 00:47:21;;;;;;;5.13;2.70;;;6.10;99.90;;;;;;4982091;28;20278;-86
2021/03/12 00:49:49;;;;;;;4.88;2.60;;;6.00;99.90;;;;;;4986748;28;20285;-83
2021/03/12 00:52:16;;;;;;;8.30;3.50;;;6.10;99.90;;;;;;4983821;28;20234;-86
2021/03/12 00:54:42;;;;;;;4.88;3.03;;;6.10;99.90;;;;;;4988902;28;20216;-83
2021/03/12 00:57:09;;;;;;;7.22;3.63;;;6.10;99.90;;;;;;4989043;28;20266;-84
2021/03/12 00:59:36;;;;;;;4.80;3.97;;;6.00;99.90;;;;;;4991556;28;20218;-82
2021/03/12 01:02:02;;;;;;;9.13;3.20;;;6.00;99.90;;;;;;4998303;28;20237;-83
2021/03/12 01:04:29;;;;;;;10.73;3.58;;;6.00;99.90;;;;;;5005517;28;20234;-84
2021/03/12 01:06:56;;;;;;;10.73;3.28;;;6.00;99.90;;;;;;4978886;28;20253;-84
2021/03/12 01:09:23;;;;;;;5.38;3.30;;;6.00;99.90;;;;;;4989193;28;20198;-84
2021/03/12 01:11:50;;;;;;;8.95;3.95;;;6.00;99.90;;;;;;4991742;28;20231;-84
2021/03/12 01:14:17;;;;;;;5.82;3.10;;;6.00;99.90;;;;;;4989269;28;20789;-86
2021/03/12 01:16:43;;;;;;;10.55;4.82;;;6.00;99.90;;;;;;4996423;28;20215;-85
2021/03/12 01:19:10;;;;;;;15.48;3.50;;;6.00;99.90;;;;;;4996798;28;20200;-84
2021/03/12 01:21:37;;;;;;;8.15;3.60;;;6.00;99.90;;;;;;4994479;28;20277;-83
2021/03/12 01:24:07;;;;;;;8.18;4.38;;;5.90;99.90;;;;;;5007387;28;20265;-83
2021/03/12 01:26:34;;;;;;;11.25;4.78;;;5.90;99.90;;;;;;4992679;28;20212;-84
2021/03/12 01:29:01;;;;;;;6.57;3.30;;;5.90;99.90;;;;;;4986366;28;20218;-83
2021/03/12 01:31:27;;;;;;;7.15;3.78;;;5.90;99.90;;;;;;4979596;28;20239;-85
2021/03/12 01:33:54;;;;;;;10.98;3.50;;;5.80;99.90;;;;;;4991609;28;20214;-82
2021/03/12 01:36:21;;;;;;;7.90;3.97;;;5.80;99.90;;;;;;4995968;28;20256;-82
2021/03/12 01:38:48;;;;;;;9.07;4.38;;;5.90;99.90;;;;;;5001451;28;20258;-81
2021/03/12 01:41:16;;;;;;;9.30;4.18;;;5.90;99.90;;;;;;4997923;28;20312;-82
2021/03/12 01:43:42;;;;;;;10.82;4.57;;;6.00;99.90;;;;;;5005785;28;20273;-81
2021/03/12 01:46:09;;;;;;;9.02;3.83;;;6.00;99.90;;;;;;5005366;28;20254;-81
2021/03/12 01:48:36;;;;;;;14.57;4.72;;;6.10;99.90;;;;;;4999075;28;20265;-83
2021/03/12 01:51:05;;;;;;;10.43;5.32;;;6.20;99.90;;;;;;5001529;28;20236;-83
2021/03/12 01:53:33;;;;;;;10.70;4.90;;;6.20;99.90;;;;;;4990490;28;20294;-84
2021/03/12 01:56:00;;;;;;;9.55;5.68;;;6.30;99.90;;;;;;4983033;28;20300;-84
2021/03/12 01:58:28;;;;;;;14.88;5.47;;;6.40;99.90;;;;;;5000051;28;20289;-85
2021/03/12 02:00:55;;;;;;;12.45;4.63;;;6.50;99.90;;;;;;4990777;28;20282;-84
2021/03/12 02:03:25;;;;;;;9.32;3.85;;;6.50;99.90;;;;;;4990770;28;20225;-86
2021/03/12 02:05:52;;;;;;;8.35;4.10;;;6.50;99.90;;;;;;4987107;28;20286;-83
2021/03/12 02:08:19;;;;;;;16.52;5.65;;;6.60;99.90;;;;;;4992252;28;20660;-84
2021/03/12 02:10:47;;;;;;;11.80;5.38;;;6.70;99.90;;;;;;4997892;28;20282;-83
2021/03/12 02:13:26;;;;;;;12.05;4.63;;;6.80;99.90;;;;;;4998513;28;20227;-82
2021/03/12 02:15:57;;;;;;;11.32;4.13;;;6.80;99.90;;;;;;4990967;28;20666;-85
2021/03/12 02:18:33;;;;;;;8.77;3.60;;;6.90;99.90;;;;;;4992758;28;20616;-83
2021/03/12 02:21:08;;;;;;;9.45;4.72;;;7.00;99.90;;;;;;4998098;28;20690;-83
2021/03/12 02:24:00;;;;;;;10.00;5.05;;;7.00;99.90;;;;;;4980715;28;20683;-84
2021/03/12 02:26:39;;;;;;;8.10;3.70;;;7.10;99.90;;;;;;4990154;28;20284;-83
2021/03/12 02:29:09;;;;;;;9.52;4.43;;;7.10;99.90;;;;;;4991726;28;20203;-83
2021/03/12 02:31:37;;;;;;;10.23;4.25;;;7.20;99.90;;;;;;4987424;28;20607;-84
2021/03/12 02:34:07;;;;;;;12.77;4.60;;;7.10;99.90;;;;;;4999537;28;20282;-85
2021/03/12 02:36:37;;;;;;;8.80;4.40;;;7.20;99.90;;;;;;4982832;28;20602;-83
2021/03/12 02:39:07;;;;;;;6.93;3.88;;;7.20;99.90;;;;;;4987983;28;20284;-83
2021/03/12 02:41:34;;;;;;;8.80;3.58;;;7.20;99.90;;;;;;4983887;28;20208;-82
2021/03/12 02:44:04;;;;;;;7.22;4.70;;;7.20;99.90;;;;;;4987945;28;20278;-83
2021/03/12 02:46:31;;;;;;;11.90;4.15;;;7.30;99.90;;;;;;4987586;28;20222;-82
2021/03/12 02:48:58;;;;;;;6.03;3.15;;;7.30;99.90;;;;;;4989127;28;20324;-82
2021/03/12 02:51:25;;;;;;;7.78;4.15;;;7.30;99.90;;;;;;4998106;28;20242;-82
2021/03/12 02:53:53;;;;;;;11.82;3.90;;;7.30;99.90;;;;;;4998885;28;20256;-82
2021/03/12 02:56:22;;;;;;;13.07;4.03;;;7.30;99.90;;;;;;5008523;28;20246;-82
2021/03/12 02:58:50;;;;;;;14.18;3.47;;;7.30;99.90;;;;;;4992801;28;20191;-81
2021/03/12 03:01:18;;;;;;;7.22;3.38;;;7.40;99.90;;;;;;5003144;28;20197;-81
2021/03/12 03:03:48;;;;;;;8.88;4.18;;;7.30;99.90;;;;;;4998083;28;20291;-81
2021/03/12 03:06:16;;;;;;;8.55;3.72;;;7.30;99.90;;;;;;4996527;28;20242;-81
2021/03/12 03:08:46;;;;;;;11.48;4.70;;;7.40;99.90;;;;;;4997569;28;20252;-81
2021/03/12 03:11:14;;;;;;;12.45;3.67;;;7.40;99.90;;;;;;4999800;28;20211;-81
2021/03/12 03:13:43;;;;;;;10.32;3.75;;;7.40;99.90;;;;;;4998162;28;20229;-81
2021/03/12 03:16:14;;;;;;;9.52;3.33;;;7.40;99.90;;;;;;5002524;28;20189;-83
2021/03/12 03:18:41;;;;;;;10.38;3.78;;;7.40;99.90;;;;;;4993887;28;20268;-81
2021/03/12 03:21:11;;;;;;;9.23;3.85;;;7.30;99.90;;;;;;4999950;28;20225;-82
2021/03/12 03:23:38;;;;;;;11.40;3.75;;;7.30;99.90;;;;;;5002025;28;20280;-81
2021/03/12 03:26:05;;;;;;;9.65;3.30;;;7.30;99.90;;;;;;4999188;28;20262;-82
2021/03/12 03:28:32;;;;;;;8.77;3.70;;;7.30;99.90;;;;;;5007372;28;20262;-82
2021/03/12 03:31:00;;;;;;;10.57;3.97;;;7.30;99.90;;;;;;4996526;28;20341;-81
2021/03/12 03:33:27;;;;;;;9.90;3.65;;;7.40;99.90;;;;;;5002404;28;20435;-79
2021/03/12 03:35:53;;;;;;;9.95;3.10;;;7.40;99.90;;;;;;4989771;28;20189;-81
2021/03/12 03:38:21;;;;;;;16.65;4.57;;;7.40;99.90;;;;;;4985689;28;20188;-81
2021/03/12 03:40:48;;;;;;;7.28;4.03;;;7.40;99.90;;;;;;5000175;28;20248;-80
2021/03/12 04:03:57;;;;;;;7.03;3.38;;;7.30;99.90;;;;;;4915933;29;20294;-81
2021/03/12 04:09:49;;;;;;;14.00;5.10;;;7.30;99.90;;;;;;4955043;28;20232;-82
2021/03/12 04:12:16;;;;;;;8.48;4.03;;;7.30;99.90;;;;;;4977841;28;20292;-82
2021/03/12 04:14:54;;;;;;;7.18;3.65;;;7.30;99.90;;;;;;5011417;28;20193;-83
2021/03/12 04:20:09;;;;;;;8.75;3.80;;;7.20;99.90;;;;;;4987521;28;20204;-82
2021/03/12 04:23:01;;;;;;;9.65;4.25;;;7.20;99.90;;;;;;5002205;28;20275;-81
2021/03/12 04:25:52;;;;;;;7.60;4.13;;;7.20;99.90;;;;;;4999108;28;20190;-81
2021/03/12 04:28:34;;;;;;;14.38;4.60;;;7.10;99.90;;;;;;4994463;28;20186;-82
2021/03/12 04:34:40;;;;;;;12.23;4.10;;;7.00;99.90;;;;;;4996981;28;20214;-82
2021/03/12 04:40:34;;;;;;;11.32;3.83;;;7.00;99.90;;;;;;4957741;28;20281;-82
2021/03/12 04:43:53;;;;;;;10.40;4.15;;;7.10;99.90;;;;;;4918189;29;20246;-82
2021/03/12 04:46:45;;;;;;;10.38;5.05;;;7.20;99.90;;;;;;4998450;28;20264;-82
2021/03/12 04:59:16;;;;;;;7.75;4.22;;;7.10;99.90;;;;;;4978028;28;20195;-82
2021/03/12 05:12:36;;;;;;;4.95;3.15;;;7.00;99.90;;;;;;4913350;29;20230;-84
2021/03/12 05:32:17;;;;;;;7.63;4.15;;;7.00;99.90;;;;;;4790174;29;20749;-85
2021/03/12 05:35:03;;;;;;;14.43;4.65;;;6.90;99.90;;;;;;4825107;29;20699;-83
2021/03/12 05:40:36;;;;;;;7.80;3.47;;;6.90;99.90;;;;;;4906138;29;20326;-84
2021/03/12 05:43:03;;;;;;;8.38;3.55;;;7.00;99.90;;;;;;4917311;29;20228;-82
2021/03/12 05:45:30;;;;;;;8.88;3.40;;;7.00;99.90;;;;;;4940051;28;20220;-83
2021/03/12 05:47:58;;;;;;;6.57;3.47;;;6.90;99.90;;;;;;4990056;28;20838;-85
2021/03/12 05:50:25;;;;;;;17.42;5.47;;;6.90;99.90;;;;;;4996767;28;20237;-80
2021/03/12 18:00:10;;;;;;;1.70;1.55;;;4.90;99.90;;;;;;1724225;23;20609;-73
2021/03/12 18:02:38;;;;;;;2.13;1.92;;;5.00;99.90;;;;;;4964501;28;20662;-75
2021/03/12 18:05:06;;;;;;;3.83;2.10;;;5.00;99.90;;;;;;4973665;28;20214;-75
2021/03/12 18:07:33;;;;;;;3.13;2.10;;;5.10;99.90;;;;;;4963955;28;20657;-76
2021/03/12 18:10:01;;;;;;;6.60;2.20;;;5.10;99.90;;;;;;4965240;28;20229;-76
2021/03/12 18:12:28;;;;;;;3.08;1.75;;;5.20;99.90;;;;;;4959215;28;20691;-75
2021/03/12 18:14:55;;;;;;;3.35;1.80;;;5.20;99.90;;;;;;4972547;28;20202;-76
2021/03/12 18:17:23;;;;;;;1.65;1.30;;;5.30;99.90;;;;;;4953467;28;20218;-79
2021/03/12 18:19:50;;;;;;;2.47;1.70;;;5.30;99.90;;;;;;4961579;28;20231;-75
2021/03/12 18:22:17;;;;;;;3.15;2.03;;;5.40;99.90;;;;;;4971978;28;20321;-77
2021/03/12 18:24:44;;;;;;;5.47;2.75;;;5.40;99.90;;;;;;4957315;28;20712;-75
2021/03/12 18:27:12;;;;;;;4.80;1.73;;;5.50;99.90;;;;;;4973487;28;20652;-75
2021/03/12 18:29:39;;;;;;;6.25;2.35;;;5.50;99.90;;;;;;4962921;28;20219;-75
2021/03/12 18:32:13;;;;;;;3.08;2.78;;;5.50;99.90;;;;;;4964603;28;20252;-76
2021/03/12 18:34:40;;;;;;;4.07;3.35;;;5.60;99.90;;;;;;4950551;28;20642;-76
2021/03/12 18:37:07;;;;;;;4.65;4.05;;;5.80;99.90;;;;;;4954502;28;20227;-74
2021/03/12 18:39:34;;;;;;;5.72;3.88;;;5.80;99.90;;;;;;4950553;28;20397;-77
2021/03/12 18:42:02;;;;;;;7.40;4.90;;;5.80;99.90;;;;;;4947230;28;20225;-75
2021/03/12 18:44:29;;;;;;;5.20;4.70;;;5.90;99.90;;;;;;4961450;28;20562;-75
2021/03/12 18:46:56;;;;;;;5.80;4.30;;;6.00;99.90;;;;;;4955433;28;20203;-75
2021/03/12 18:49:23;;;;;;;4.93;4.28;;;6.10;99.90;;;;;;4954660;28;20222;-76
2021/03/12 18:51:54;;;;;;;5.47;3.95;;;6.20;99.90;;;;;;4956194;28;20313;-82
2021/03/12 18:54:21;;;;;;;4.60;3.60;;;6.30;99.90;;;;;;4948752;28;20310;-77
2021/03/12 18:56:48;;;;;;;6.03;3.80;;;6.40;99.90;;;;;;4945142;28;20226;-76
2021/03/12 18:59:15;;;;;;;6.10;3.85;;;6.50;99.90;;;;;;4950323;28;20314;-78
2021/03/12 19:01:41;;;;;;;4.30;3.38;;;6.50;99.90;;;;;;4947558;28;20219;-77
2021/03/12 19:04:08;;;;;;;2.83;2.63;;;6.50;99.90;;;;;;4955905;28;20282;-77
2021/03/12 19:06:35;;;;;;;4.65;2.40;;;6.20;99.90;;;;;;4941643;28;20204;-76
2021/03/12 19:09:03;;;;;;;3.63;2.85;;;6.10;99.90;;;;;;4959737;28;20294;-75
2021/03/12 19:11:30;;;;;;;3.08;2.10;;;6.10;99.90;;;;;;4951515;28;20593;-75
2021/03/12 19:13:56;;;;;;;3.28;2.92;;;6.00;99.90;;;;;;4950171;28;20331;-78
2021/03/12 19:16:25;;;;;;;9.15;3.10;;;6.10;99.90;;;;;;4947857;28;20210;-76
2021/03/12 19:18:52;;;;;;;4.57;3.50;;;6.10;99.90;;;;;;4945309;28;20203;-75
2021/03/12 19:21:18;;;;;;;3.58;2.95;;;6.20;99.90;;;;;;4947284;28;20337;-76
2021/03/12 19:23:45;;;;;;;3.15;2.78;;;6.10;99.90;;;;;;4946093;28;20203;-76
2021/03/12 19:26:13;;;;;;;4.85;3.75;;;6.20;99.90;;;;;;4952091;28;20200;-77
2021/03/12 19:28:41;;;;;;;4.18;2.42;;;6.20;99.90;;;;;;4950843;28;20583;-76
2021/03/12 19:31:08;;;;;;;4.07;3.22;;;6.10;99.90;;;;;;4962086;28;20268;-76
2021/03/12 19:33:35;;;;;;;4.13;3.25;;;6.20;99.90;;;;;;4947145;28;21168;-75
2021/03/12 19:36:02;;;;;;;4.35;3.95;;;6.10;99.90;;;;;;4947150;28;20670;-76
2021/03/12 19:38:29;;;;;;;4.10;3.70;;;6.30;99.90;;;;;;4960542;28;20213;-74
2021/03/12 19:40:56;;;;;;;5.70;4.28;;;6.40;99.90;;;;;;4956710;28;20621;-74
2021/03/12 19:43:23;;;;;;;7.25;3.75;;;6.40;99.90;;;;;;4970837;28;20203;-76
2021/03/12 19:45:50;;;;;;;8.45;4.53;;;6.20;99.90;;;;;;4958300;28;20549;-76
2021/03/12 19:48:17;;;;;;;11.75;6.85;;;6.30;99.90;;;;;;4961569;28;20213;-75
2021/03/12 19:50:44;;;;;;;4.68;4.10;;;6.40;99.90;;;;;;4960644;28;20228;-76
2021/03/12 19:53:11;;;;;;;2.80;2.60;;;6.50;99.90;;;;;;4953860;28;20228;-72
2021/03/12 19:55:38;;;;;;;3.17;2.88;;;6.40;99.90;;;;;;4961179;28;20215;-73
2021/03/12 19:58:05;;;;;;;2.97;2.03;;;6.20;99.90;;;;;;4956831;28;20209;-74
2021/03/12 20:00:33;;;;;;;6.55;5.85;;;6.00;99.90;;;;;;4953060;28;20245;-74
2021/03/12 20:03:01;;;;;;;6.10;3.75;;;5.80;99.90;;;;;;4952754;28;20275;-74
2021/03/12 20:05:28;;;;;;;10.13;7.95;;;5.60;99.90;;;;;;4952529;28;20202;-73
2021/03/12 20:07:55;;;;;;;8.77;7.95;;;5.60;99.90;;;;;;4960062;28;20968;-75
2021/03/12 20:10:22;;;;;;;11.60;8.07;;;5.60;99.90;;;;;;4950910;28;20237;-74
2021/03/12 20:12:49;;;;;;;10.77;9.18;;;5.60;99.90;;;;;;4955358;28;20203;-75
2021/03/12 20:15:16;;;;;;;11.68;8.60;;;5.70;99.90;;;;;;4960097;28;20242;-75
2021/03/12 20:17:43;;;;;;;9.73;7.38;;;5.80;99.90;;;;;;4967680;28;20286;-74
2021/03/12 20:20:14;;;;;;;13.75;10.13;;;5.80;99.90;;;;;;4960981;28;20305;-75
2021/03/12 20:22:42;;;;;;;13.02;9.80;;;5.90;99.90;;;;;;4965022;28;20235;-75
2021/03/12 20:25:10;;;;;;;11.43;8.57;;;6.00;99.90;;;;;;4961958;28;20205;-75
2021/03/12 20:27:37;;;;;;;9.93;8.93;;;6.10;99.90;;;;;;4970952;28;20586;-74
2021/03/12 20:30:06;;;;;;;12.10;10.18;;;6.10;99.90;;;;;;4964007;28;20302;-75
2021/03/12 20:32:33;;;;;;;10.02;7.40;;;6.10;99.90;;;;;;4970028;28;20285;-74
2021/03/12 20:35:00;;;;;;;12.98;8.15;;;6.10;99.90;;;;;;4961431;28;20204;-77
2021/03/12 20:37:28;;;;;;;10.65;8.38;;;6.00;99.90;;;;;;4967874;28;20245;-74
2021/03/12 20:39:55;;;;;;;12.27;8.88;;;6.10;99.90;;;;;;4967383;28;20229;-76
2021/03/12 20:42:22;;;;;;;8.57;5.97;;;6.00;99.90;;;;;;4965007;28;20265;-73
2021/03/12 20:44:50;;;;;;;7.57;6.82;;;6.10;99.90;;;;;;4962081;28;20301;-75
2021/03/12 20:47:17;;;;;;;10.15;5.60;;;6.00;99.90;;;;;;4965441;28;20206;-76
2021/03/12 20:49:43;;;;;;;8.70;6.95;;;6.00;99.90;;;;;;4966462;28;20241;-77
2021/03/12 20:52:11;;;;;;;7.88;5.82;;;6.00;99.90;;;;;;4968209;28;20653;-75
2021/03/12 20:54:38;;;;;;;7.85;7.15;;;6.00;99.90;;;;;;4966417;28;20288;-74
2021/03/12 20:57:05;;;;;;;7.35;5.85;;;6.00;99.90;;;;;;4965649;28;20203;-76
2021/03/12 20:59:31;;;;;;;6.78;5.63;;;6.00;99.90;;;;;;4963757;28;20597;-75
2021/03/12 21:01:58;;;;;;;9.63;5.53;;;5.90;99.90;;;;;;4960470;28;20269;-75
2021/03/12 21:04:25;;;;;;;6.97;5.70;;;5.90;99.90;;;;;;4968554;28;20680;-78
2021/03/12 21:06:52;;;;;;;5.72;4.03;;;5.90;99.90;;;;;;4971462;28;20213;-77
2021/03/12 21:09:19;;;;;;;6.75;5.97;;;5.90;99.90;;;;;;4967722;28;20298;-76
2021/03/12 21:11:46;;;;;;;11.43;9.07;;;5.80;99.90;;;;;;4965376;28;20210;-77
2021/03/12 21:14:13;;;;;;;6.57;4.85;;;5.80;99.90;;;;;;4950262;28;20210;-76
2021/03/12 21:16:40;;;;;;;6.22;4.70;;;5.80;99.90;;;;;;4959845;28;20222;-78
2021/03/12 21:19:07;;;;;;;5.80;4.40;;;5.90;99.90;;;;;;4959373;28;20206;-76
2021/03/12 21:21:34;;;;;;;5.40;3.65;;;5.90;99.90;;;;;;4965213;28;20701;-75
2021/03/12 21:24:02;;;;;;;8.95;4.68;;;5.90;99.90;;;;;;4956145;28;20232;-78
2021/03/12 21:26:30;;;;;;;8.73;4.10;;;5.90;99.90;;;;;;4948137;28;20303;-77
2021/03/12 21:28:56;;;;;;;5.45;2.50;;;6.00;99.90;;;;;;4955907;28;20346;-74
2021/03/12 21:31:23;;;;;;;3.72;1.70;;;5.90;99.90;;;;;;4951001;28;20306;-76
2021/03/12 21:33:51;;;;;;;5.43;2.63;;;5.90;99.90;;;;;;4954131;28;20206;-77
2021/03/12 21:36:18;;;;;;;5.72;2.45;;;6.00;99.90;;;;;;4961557;28;20216;-76
2021/03/12 21:38:45;;;;;;;5.82;1.80;;;5.90;99.90;;;;;;4954638;28;20238;-73
2021/03/12 21:41:11;;;;;;;5.22;2.30;;;5.80;99.90;;;;;;4954836;28;20576;-74
2021/03/12 21:43:39;;;;;;;5.70;2.45;;;5.80;99.90;;;;;;4959608;28;20270;-73
2021/03/12 21:46:06;;;;;;;4.05;2.63;;;5.80;99.90;;;;;;4960540;28;20278;-75
2021/03/12 21:48:33;;;;;;;13.13;4.65;;;5.90;99.90;;;;;;4954430;28;20631;-75
2021/03/12 21:51:00;;;;;;;4.15;2.58;;;5.80;99.90;;;;;;4958885;28;20611;-78
2021/03/12 21:53:28;;;;;;;3.70;2.30;;;5.80;99.90;;;;;;4962051;28;20631;-76
2021/03/12 21:55:55;;;;;;;3.88;2.17;;;5.80;99.90;;;;;;4959994;28;20257;-76
2021/03/12 21:58:22;;;;;;;4.75;3.22;;;5.80;99.90;;;;;;4950053;28;20212;-74
2021/03/12 22:00:50;;;;;;;4.45;3.08;;;5.90;99.90;;;;;;4958475;28;20239;-74
2021/03/12 22:03:17;;;;;;;6.53;2.35;;;5.90;99.90;;;;;;4952721;28;20261;-71
2021/03/12 22:05:45;;;;;;;5.38;2.60;;;5.90;99.90;;;;;;4959881;28;20562;-72
2021/03/12 22:08:12;;;;;;;6.75;3.85;;;5.90;99.90;;;;;;4959204;28;20302;-76
2021/03/12 22:10:40;;;;;;;5.57;2.78;;;5.80;99.90;;;;;;4952925;28;20226;-72
2021/03/12 22:13:08;;;;;;;7.80;3.50;;;5.90;99.90;;;;;;4952893;28;20684;-76
2021/03/12 22:15:35;;;;;;;4.82;4.00;;;5.90;99.90;;;;;;4958674;28;20266;-74
2021/03/12 22:18:04;;;;;;;9.50;3.70;;;5.80;99.90;;;;;;4952426;28;20704;-73
2021/03/12 22:20:32;;;;;;;6.60;3.10;;;5.90;99.90;;;;;;4947337;28;20258;-74
2021/03/12 22:22:58;;;;;;;8.48;3.22;;;5.90;99.90;;;;;;4968131;28;20310;-70
2021/03/12 22:25:25;;;;;;;7.72;3.65;;;5.80;99.90;;;;;;4956150;28;20214;-72
2021/03/12 22:27:54;;;;;;;5.68;3.45;;;5.80;99.90;;;;;;4952248;28;20204;-75
2021/03/12 22:30:23;;;;;;;7.93;4.30;;;5.80;99.90;;;;;;4945933;28;20227;-73
2021/03/12 22:32:51;;;;;;;3.35;2.28;;;5.80;99.90;;;;;;4950207;28;20206;-71
2021/03/12 22:35:19;;;;;;;6.68;2.65;;;5.80;99.90;;;;;;4950907;28;20293;-74
2021/03/12 22:37:46;;;;;;;9.27;3.40;;;5.90;99.90;;;;;;4953145;28;20211;-74
2021/03/12 22:40:15;;;;;;;6.95;3.95;;;5.90;99.90;;;;;;4949085;28;20219;-75
2021/03/12 22:42:42;;;;;;;5.43;2.90;;;5.90;99.90;;;;;;4952415;28;20305;-72
2021/03/12 22:45:11;;;;;;;5.45;2.95;;;6.00;99.90;;;;;;4954977;28;20343;-74
2021/03/12 22:47:39;;;;;;;7.78;2.30;;;6.00;99.90;;;;;;4955438;28;20207;-71
2021/03/12 22:50:10;;;;;;;4.93;2.40;;;5.60;99.90;;;;;;4951295;28;20235;-72
2021/03/12 22:52:37;;;;;;;3.25;2.25;;;5.10;99.90;;;;;;4955836;28;20207;-72
2021/03/12 22:55:06;;;;;;;2.40;1.90;;;5.00;99.90;;;;;;4952470;28;20215;-71
2021/03/12 22:57:32;;;;;;;2.80;1.40;;;4.90;99.90;;;;;;4951446;28;20206;-71
2021/03/12 22:59:59;;;;;;;3.35;1.80;;;4.90;99.90;;;;;;4950958;28;20701;-72
2021/03/12 23:02:26;;;;;;;2.38;1.48;;;4.80;99.90;;;;;;4955509;28;20262;-73
2021/03/12 23:04:53;;;;;;;3.22;1.38;;;4.80;99.90;;;;;;4958807;28;20217;-69
2021/03/12 23:07:19;;;;;;;6.88;1.88;;;4.80;99.90;;;;;;4951737;28;20615;-72
2021/03/12 23:09:47;;;;;;;2.00;1.38;;;4.70;99.90;;;;;;4954116;28;20239;-74
2021/03/12 23:12:14;;;;;;;5.45;1.20;;;4.80;99.90;;;;;;4947327;28;20203;-72
2021/03/12 23:14:41;;;;;;;3.17;1.80;;;4.70;99.90;;;;;;4949936;28;20210;-70
2021/03/12 23:17:09;;;;;;;1.95;1.48;;;4.70;99.90;;;;;;4951830;28;20207;-73
2021/03/12 23:19:36;;;;;;;3.15;2.05;;;4.70;99.90;;;;;;4954321;28;20294;-71
2021/03/12 23:22:03;;;;;;;2.25;1.63;;;4.70;99.90;;;;;;4960175;28;20202;-70
2021/03/12 23:24:29;;;;;;;4.45;2.00;;;4.60;99.90;;;;;;4958115;28;20207;-73
2021/03/12 23:26:57;;;;;;;3.28;1.90;;;4.70;99.90;;;;;;4960062;28;20225;-72
2021/03/12 23:29:24;;;;;;;3.00;2.00;;;4.60;99.90;;;;;;4957178;28;20211;-73
2021/03/12 23:31:51;;;;;;;7.30;1.80;;;4.50;99.90;;;;;;4952484;28;20207;-72
2021/03/12 23:34:18;;;;;;;2.58;1.95;;;4.50;99.90;;;;;;4955446;28;20209;-72
2021/03/12 23:36:44;;;;;;;3.05;1.55;;;4.50;99.90;;;;;;4954083;28;20195;-70
2021/03/12 23:39:12;;;;;;;3.75;1.35;;;4.50;99.90;;;;;;4951841;28;20218;-73
2021/03/12 23:41:40;;;;;;;1.98;1.77;;;4.60;99.90;;;;;;4955470;28;20203;-74
2021/03/12 23:44:09;;;;;;;6.05;1.70;;;4.50;99.90;;;;;;4954210;28;20226;-72
2021/03/12 23:46:38;;;;;;;2.25;1.80;;;4.40;99.90;;;;;;4947103;28;20217;-71
2021/03/12 23:49:05;;;;;;;2.78;1.70;;;4.40;99.90;;;;;;4947369;28;20200;-70
2021/03/12 23:51:32;;;;;;;3.63;1.27;;;4.40;99.90;;;;;;4947995;28;20236;-70
2021/03/12 23:54:00;;;;;;;1.67;1.55;;;4.40;99.90;;;;;;4960058;28;20285;-71
2021/03/12 23:56:27;;;;;;;5.70;1.80;;;4.40;99.90;;;;;;4954722;28;20532;-73
2021/03/12 23:58:54;;;;;;;4.53;2.20;;;4.40;99.90;;;;;;4945125;28;20290;-72
